PWSweather.com
Personal Weather Stations
Station Observations
HAJERN
Hajeren, HvittingfossNO 3647

HajerenHvittingfossNO 3647

Lat: 59.54314324, Lon: 9.95778703

Elevation: 1320

Station Type: Fine Ofset WS 1080

www.hajern.no

High Low Average
Temperature 68.7°F20.4°C 49.6°F9.8°C 58.2°F14.6°C
Dew Point 55.1°F12.8°C 37.5°F3.1°C 45.0°F7.2°C
Winds 12.7 mph 20.4 kmh 0.1 mph 0.2 kmh 7.0 mph SW11.3 kmh SW
Wind Gusts 19.7 mph31.7 kmh 0.7 mph1.1 kmh 11.0 mph17.7 kmh
Humidity 99% 32% 66%
Pressure 29.89 in1012.2 mb 29.82 in1009.8 mb -
Precipitation 0.00 in0.0 mm - -
Hour Temp Dew Point Humidity Winds Wind Gusts Pressure Precip Precip Rate Daily Precip Total
12:00 AM 56.5°F13.6°C 56.2°F13.4°C 99% 6.0 mph SW9.7 kmh SW 9.2 mph14.8 kmh 29.84 in1010.5 mb 0.00 in0.0 mm 0.00 in0.0 mm 0.00 in0.0 mm
12:30 AM 55.8°F13.2°C 55.5°F13.1°C 99% 6.6 mph SW10.6 kmh SW 10.7 mph17.2 kmh 29.84 in1010.5 mb 0.00 in0.0 mm 0.00 in0.0 mm 0.00 in0.0 mm
01:00 AM 55.4°F13.0°C 55.1°F12.8°C 99% 6.9 mph WSW11.1 kmh WSW 9.8 mph15.8 kmh 29.84 in1010.5 mb 0.00 in0.0 mm 0.00 in0.0 mm 0.00 in0.0 mm
01:30 AM 54.9°F12.7°C 54.6°F12.6°C 99% 7.5 mph SSW12.1 kmh SSW 9.8 mph15.8 kmh 29.83 in1010.2 mb 0.00 in0.0 mm 0.00 in0.0 mm 0.00 in0.0 mm
02:00 AM 54.1°F12.3°C 53.9°F12.2°C 99% 8.5 mph SW13.7 kmh SW 10.7 mph17.2 kmh 29.82 in1009.8 mb 0.00 in0.0 mm 0.00 in0.0 mm 0.00 in0.0 mm
02:30 AM 53.4°F11.9°C 53.2°F11.8°C 99% 6.9 mph SSW11.1 kmh SSW 11.4 mph18.3 kmh 29.83 in1010.2 mb 0.00 in0.0 mm 0.00 in0.0 mm 0.00 in0.0 mm
03:00 AM 52.9°F11.6°C 52.6°F11.4°C 99% 5.2 mph SW8.4 kmh SW 7.6 mph12.2 kmh 29.82 in1009.8 mb 0.00 in0.0 mm 0.00 in0.0 mm 0.00 in0.0 mm
03:30 AM 52.0°F11.1°C 51.7°F10.9°C 99% 2.7 mph ESE4.3 kmh ESE 3.8 mph6.1 kmh 29.84 in1010.5 mb 0.00 in0.0 mm 0.00 in0.0 mm 0.00 in0.0 mm
04:00 AM 51.6°F10.9°C 51.4°F10.8°C 99% 1.9 mph SSW3.1 kmh SSW 4.5 mph7.2 kmh 29.84 in1010.5 mb 0.00 in0.0 mm 0.00 in0.0 mm 0.00 in0.0 mm
04:30 AM 50.9°F10.5°C 50.6°F10.3°C 99% 3.0 mph SW4.8 kmh SW 5.4 mph8.7 kmh 29.84 in1010.5 mb 0.00 in0.0 mm 0.00 in0.0 mm 0.00 in0.0 mm
05:00 AM 50.7°F10.4°C 50.5°F10.3°C 99% 3.7 mph SW6.0 kmh SW 6.0 mph9.7 kmh 29.83 in1010.2 mb 0.00 in0.0 mm 0.00 in0.0 mm 0.00 in0.0 mm
05:30 AM 50.2°F10.1°C 49.9°F9.9°C 99% 3.1 mph S5.0 kmh S 6.0 mph9.7 kmh 29.83 in1010.2 mb 0.00 in0.0 mm 0.00 in0.0 mm 0.00 in0.0 mm
06:00 AM 49.6°F9.8°C 49.4°F9.7°C 99% 0.1 mph SE0.2 kmh SE 0.7 mph1.1 kmh 29.84 in1010.5 mb 0.00 in0.0 mm 0.00 in0.0 mm 0.00 in0.0 mm
06:30 AM 51.3°F10.7°C 51.0°F10.6°C 99% 3.8 mph S6.1 kmh S 5.4 mph8.7 kmh 29.84 in1010.5 mb 0.00 in0.0 mm 0.00 in0.0 mm 0.00 in0.0 mm
07:00 AM 52.3°F11.3°C 52.1°F11.2°C 99% 4.4 mph SSW7.1 kmh SSW 5.4 mph8.7 kmh 29.85 in1010.8 mb 0.00 in0.0 mm 0.00 in0.0 mm 0.00 in0.0 mm
07:30 AM 53.6°F12.0°C 51.3°F10.7°C 92% 4.6 mph SSW7.4 kmh SSW 6.0 mph9.7 kmh 29.85 in1010.8 mb 0.00 in0.0 mm 0.00 in0.0 mm 0.00 in0.0 mm
08:00 AM 54.5°F12.5°C 51.0°F10.6°C 88% 7.6 mph S12.2 kmh S 9.8 mph15.8 kmh 29.85 in1010.8 mb 0.00 in0.0 mm 0.00 in0.0 mm 0.00 in0.0 mm
08:30 AM 57.7°F14.3°C 48.8°F9.3°C 72% 6.5 mph WSW10.5 kmh WSW 9.8 mph15.8 kmh 29.86 in1011.2 mb 0.00 in0.0 mm 0.00 in0.0 mm 0.00 in0.0 mm
09:00 AM 60.3°F15.7°C 49.7°F9.8°C 68% 5.3 mph WSW8.5 kmh WSW 9.2 mph14.8 kmh 29.87 in1011.5 mb 0.00 in0.0 mm 0.00 in0.0 mm 0.00 in0.0 mm
09:30 AM 64.4°F18.0°C 49.8°F9.9°C 59% 5.9 mph WSW9.5 kmh WSW 9.2 mph14.8 kmh 29.86 in1011.2 mb 0.00 in0.0 mm 0.00 in0.0 mm 0.00 in0.0 mm
10:00 AM 62.1°F16.7°C 45.2°F7.3°C 54% 11.1 mph W17.9 kmh W 16.8 mph27.0 kmh 29.87 in1011.5 mb 0.00 in0.0 mm 0.00 in0.0 mm 0.00 in0.0 mm
10:30 AM 62.2°F16.8°C 44.4°F6.9°C 52% 12.0 mph WSW19.3 kmh WSW 15.9 mph25.6 kmh 29.88 in1011.9 mb 0.00 in0.0 mm 0.00 in0.0 mm 0.00 in0.0 mm
11:00 AM 61.5°F16.4°C 44.7°F7.1°C 54% 10.1 mph W16.3 kmh W 16.8 mph27.0 kmh 29.88 in1011.9 mb 0.00 in0.0 mm 0.00 in0.0 mm 0.00 in0.0 mm
11:30 AM 66.2°F19.0°C 45.4°F7.4°C 47% 8.6 mph SW13.8 kmh SW 11.4 mph18.3 kmh 29.87 in1011.5 mb 0.00 in0.0 mm 0.00 in0.0 mm 0.00 in0.0 mm
12:00 PM 68.4°F20.2°C 43.1°F6.2°C 40% 8.5 mph W13.7 kmh W 12.1 mph19.5 kmh 29.88 in1011.9 mb 0.00 in0.0 mm 0.00 in0.0 mm 0.00 in0.0 mm
12:30 PM 68.7°F20.4°C 42.8°F6.0°C 39% 10.3 mph SW16.6 kmh SW 13.0 mph20.9 kmh 29.87 in1011.5 mb 0.00 in0.0 mm 0.00 in0.0 mm 0.00 in0.0 mm
01:00 PM 66.9°F19.4°C 41.2°F5.1°C 39% 10.2 mph WSW16.4 kmh WSW 19.0 mph30.6 kmh 29.87 in1011.5 mb 0.00 in0.0 mm 0.00 in0.0 mm 0.00 in0.0 mm
01:30 PM 67.5°F19.7°C 38.9°F3.8°C 35% 11.8 mph WSW19.0 kmh WSW 16.8 mph27.0 kmh 29.88 in1011.9 mb 0.00 in0.0 mm 0.00 in0.0 mm 0.00 in0.0 mm
02:00 PM 64.0°F17.8°C 39.9°F4.4°C 41% 10.5 mph NW16.9 kmh NW 17.4 mph28.0 kmh 29.87 in1011.5 mb 0.00 in0.0 mm 0.00 in0.0 mm 0.00 in0.0 mm
02:30 PM 64.4°F18.0°C 39.6°F4.2°C 40% 11.8 mph W19.0 kmh W 17.4 mph28.0 kmh 29.89 in1012.2 mb 0.00 in0.0 mm 0.00 in0.0 mm 0.00 in0.0 mm
03:00 PM 68.5°F20.3°C 37.5°F3.1°C 32% 12.4 mph WSW20.0 kmh WSW 17.4 mph28.0 kmh 29.88 in1011.9 mb 0.00 in0.0 mm 0.00 in0.0 mm 0.00 in0.0 mm
03:30 PM 63.0°F17.2°C 38.9°F3.8°C 41% 12.7 mph W20.4 kmh W 19.7 mph31.7 kmh 29.89 in1012.2 mb 0.00 in0.0 mm 0.00 in0.0 mm 0.00 in0.0 mm
04:00 PM 63.5°F17.5°C 41.2°F5.1°C 44% 11.3 mph WSW18.2 kmh WSW 15.2 mph24.5 kmh 29.88 in1011.9 mb 0.00 in0.0 mm 0.00 in0.0 mm 0.00 in0.0 mm
04:30 PM 66.2°F19.0°C 39.9°F4.4°C 38% 8.6 mph SW13.8 kmh SW 18.3 mph29.5 kmh 29.88 in1011.9 mb 0.00 in0.0 mm 0.00 in0.0 mm 0.00 in0.0 mm
05:00 PM 66.0°F18.9°C 38.3°F3.5°C 36% 8.8 mph W14.2 kmh W 13.0 mph20.9 kmh 29.88 in1011.9 mb 0.00 in0.0 mm 0.00 in0.0 mm 0.00 in0.0 mm
05:30 PM 62.8°F17.1°C 38.7°F3.7°C 41% 7.0 mph WSW11.3 kmh WSW 12.1 mph19.5 kmh 29.88 in1011.9 mb 0.00 in0.0 mm 0.00 in0.0 mm 0.00 in0.0 mm
06:00 PM 63.1°F17.3°C 42.0°F5.6°C 46% 3.2 mph W5.1 kmh W 3.8 mph6.1 kmh 29.87 in1011.5 mb 0.00 in0.0 mm 0.00 in0.0 mm 0.00 in0.0 mm
06:30 PM 61.7°F16.5°C 42.9°F6.1°C 50% 3.0 mph SSW4.8 kmh SSW 4.5 mph7.2 kmh 29.86 in1011.2 mb 0.00 in0.0 mm 0.00 in0.0 mm 0.00 in0.0 mm
07:00 PM 57.7°F14.3°C 42.2°F5.7°C 56% 4.3 mph SSE6.9 kmh SSE 6.9 mph11.1 kmh 29.87 in1011.5 mb 0.00 in0.0 mm 0.00 in0.0 mm 0.00 in0.0 mm
07:30 PM 54.9°F12.7°C 41.7°F5.4°C 61% 8.5 mph SW13.7 kmh SW 13.0 mph20.9 kmh 29.86 in1011.2 mb 0.00 in0.0 mm 0.00 in0.0 mm 0.00 in0.0 mm
08:00 PM 53.6°F12.0°C 41.3°F5.2°C 63% 6.9 mph W11.1 kmh W 10.7 mph17.2 kmh 29.86 in1011.2 mb 0.00 in0.0 mm 0.00 in0.0 mm 0.00 in0.0 mm
08:30 PM 53.4°F11.9°C 40.3°F4.6°C 61% 9.9 mph W15.9 kmh W 15.9 mph25.6 kmh 29.86 in1011.2 mb 0.00 in0.0 mm 0.00 in0.0 mm 0.00 in0.0 mm
09:00 PM 53.1°F11.7°C 40.4°F4.7°C 62% 7.9 mph WNW12.7 kmh WNW 13.0 mph20.9 kmh 29.87 in1011.5 mb 0.00 in0.0 mm 0.00 in0.0 mm 0.00 in0.0 mm
09:30 PM 53.2°F11.8°C 39.3°F4.1°C 59% 6.6 mph W10.6 kmh W 10.7 mph17.2 kmh 29.87 in1011.5 mb 0.00 in0.0 mm 0.00 in0.0 mm 0.00 in0.0 mm
10:00 PM 53.4°F11.9°C 38.1°F3.4°C 56% 11.1 mph SW17.9 kmh SW 14.5 mph23.3 kmh 29.86 in1011.2 mb 0.00 in0.0 mm 0.00 in0.0 mm 0.00 in0.0 mm
10:30 PM 53.2°F11.8°C 37.5°F3.1°C 55% 10.8 mph WSW17.4 kmh WSW 15.2 mph24.5 kmh 29.86 in1011.2 mb 0.00 in0.0 mm 0.00 in0.0 mm 0.00 in0.0 mm
11:00 PM 52.9°F11.6°C 38.1°F3.4°C 57% 10.4 mph W16.7 kmh W 15.2 mph24.5 kmh 29.86 in1011.2 mb 0.00 in0.0 mm 0.00 in0.0 mm 0.00 in0.0 mm
11:30 PM 53.1°F11.7°C 38.2°F3.4°C 57% 8.9 mph WSW14.3 kmh WSW 15.2 mph24.5 kmh 29.87 in1011.5 mb 0.00 in0.0 mm 0.00 in0.0 mm 0.00 in0.0 mm